Time;durP1;ratioP1;P1;durP2;ratioP2;P2;SDS_P1;SDS_P2;PMS_P1;PMS_P2;Temp;Humidity;BMP_temperature;BMP_pressure;BME280_temperature;BME280_humidity;BME280_pressure;Samples;Min_cycle;Max_cycle;Signal;HPM_P1;HPM_P2
2022/12/14 00:00:57;;;;;;;58.28;30.63;;;-4.30;99.90;;;;;;4994220;28;20398;-66
2022/12/14 00:03:23;;;;;;;48.40;27.60;;;-4.20;99.90;;;;;;4994007;28;20458;-66
2022/12/14 00:05:50;;;;;;;51.10;29.45;;;-4.20;99.90;;;;;;5025792;28;20126;-66
2022/12/14 00:08:17;;;;;;;52.55;29.27;;;-4.20;99.90;;;;;;4992277;28;20533;-66
2022/12/14 00:10:43;;;;;;;56.67;29.98;;;-4.10;99.90;;;;;;4993954;28;20105;-66
2022/12/14 00:13:13;;;;;;;52.22;29.45;;;-4.10;99.90;;;;;;4993872;28;20126;-66
2022/12/14 00:15:39;;;;;;;49.85;27.98;;;-4.10;99.90;;;;;;4992513;28;20082;-66
2022/12/14 00:18:05;;;;;;;47.90;26.52;;;-4.10;99.90;;;;;;5025186;28;20053;-66
2022/12/14 00:20:32;;;;;;;47.22;27.67;;;-4.00;99.90;;;;;;5024885;28;20042;-66
2022/12/14 00:22:58;;;;;;;56.58;30.73;;;-4.00;99.90;;;;;;4993773;28;20038;-66
2022/12/14 00:25:24;;;;;;;45.50;26.20;;;-4.00;99.90;;;;;;4993758;28;20474;-66
2022/12/14 00:27:50;;;;;;;49.63;28.15;;;-4.00;99.90;;;;;;4993684;28;20109;-66
2022/12/14 00:30:19;;;;;;;49.00;26.80;;;-4.00;99.90;;;;;;4993575;28;20042;-66
2022/12/14 00:32:46;;;;;;;49.75;27.27;;;-4.00;99.90;;;;;;5025148;28;20068;-66
2022/12/14 00:35:16;;;;;;;44.35;25.27;;;-4.00;99.90;;;;;;5007670;28;20065;-66
2022/12/14 00:37:42;;;;;;;33.13;19.10;;;-4.00;99.90;;;;;;5025064;28;20045;-66
2022/12/14 00:40:09;;;;;;;50.85;25.55;;;-4.00;99.90;;;;;;4993527;28;20434;-66
2022/12/14 00:42:35;;;;;;;48.30;26.05;;;-4.00;99.90;;;;;;4992036;28;20042;-66
2022/12/14 00:45:02;;;;;;;45.28;25.17;;;-4.00;99.90;;;;;;5008186;28;20053;-66
2022/12/14 00:47:27;;;;;;;49.47;25.98;;;-4.00;99.90;;;;;;5007660;28;20501;-66
2022/12/14 00:49:53;;;;;;;48.28;26.85;;;-4.00;99.90;;;;;;5024362;28;20042;-66
2022/12/14 00:52:19;;;;;;;45.22;25.90;;;-4.00;99.90;;;;;;4993051;28;20050;-65
2022/12/14 00:54:45;;;;;;;45.38;25.38;;;-4.10;99.90;;;;;;4992076;28;20042;-66
2022/12/14 00:57:11;;;;;;;43.58;24.67;;;-4.10;99.90;;;;;;4993050;28;20130;-66
2022/12/14 00:59:38;;;;;;;50.72;26.23;;;-4.20;99.90;;;;;;4990209;28;20381;-66
2022/12/14 01:02:04;;;;;;;41.80;24.67;;;-4.20;99.90;;;;;;5007459;28;20043;-66
2022/12/14 01:04:30;;;;;;;40.40;21.48;;;-4.20;99.90;;;;;;4992245;28;20055;-66
2022/12/14 01:06:56;;;;;;;43.65;24.40;;;-4.20;99.90;;;;;;4992731;28;20195;-66
2022/12/14 01:09:23;;;;;;;41.80;23.15;;;-4.10;99.90;;;;;;4991451;28;20112;-66
2022/12/14 01:11:50;;;;;;;39.65;22.42;;;-4.20;99.90;;;;;;5024149;28;20046;-66
2022/12/14 01:14:18;;;;;;;42.22;23.90;;;-4.10;99.90;;;;;;4992575;28;20542;-66
2022/12/14 01:16:43;;;;;;;39.38;23.05;;;-4.20;99.90;;;;;;5023767;28;20089;-65
2022/12/14 01:19:11;;;;;;;41.08;23.40;;;-4.20;99.90;;;;;;4991870;28;20093;-65
2022/12/14 01:21:37;;;;;;;40.95;22.88;;;-4.30;99.90;;;;;;4992462;28;20085;-66
2022/12/14 01:24:04;;;;;;;40.28;21.48;;;-4.20;99.90;;;;;;5023970;28;20121;-65
2022/12/14 01:26:34;;;;;;;40.70;22.00;;;-4.30;99.90;;;;;;5023906;28;20466;-65
2022/12/14 01:29:01;;;;;;;38.40;22.10;;;-4.30;99.90;;;;;;4990813;28;20046;-65
2022/12/14 01:31:31;;;;;;;39.55;20.73;;;-4.30;99.90;;;;;;4992320;28;20368;-65
2022/12/14 01:33:57;;;;;;;38.17;20.70;;;-4.30;99.90;;;;;;4991631;28;20046;-65
2022/12/14 01:36:29;;;;;;;39.75;23.17;;;-4.40;99.90;;;;;;4991603;28;20133;-65
2022/12/14 01:38:57;;;;;;;39.17;20.70;;;-4.40;99.90;;;;;;5023915;28;20114;-65
2022/12/14 01:41:27;;;;;;;37.42;20.95;;;-4.40;99.90;;;;;;4990683;28;20039;-65
2022/12/14 01:43:59;;;;;;;36.67;20.23;;;-4.40;99.90;;;;;;4990848;28;20050;-65
2022/12/14 01:46:33;;;;;;;33.72;18.50;;;-4.50;99.90;;;;;;5023359;28;20053;-65
2022/12/14 01:49:06;;;;;;;38.05;21.23;;;-4.40;99.90;;;;;;5022845;28;20058;-65
2022/12/14 01:51:35;;;;;;;42.00;20.30;;;-4.50;99.90;;;;;;4990614;28;20039;-65
2022/12/14 01:54:05;;;;;;;35.00;20.95;;;-4.50;99.90;;;;;;5023330;28;20042;-65
2022/12/14 01:57:00;;;;;;;37.67;21.73;;;-4.50;99.90;;;;;;4987419;28;20129;-65
2022/12/14 02:00:04;;;;;;;37.95;20.17;;;-4.40;99.90;;;;;;4991343;28;20050;-65
2022/12/14 02:03:22;;;;;;;36.05;19.88;;;-4.40;99.90;;;;;;4989308;28;20113;-65
2022/12/14 02:06:39;;;;;;;40.97;20.48;;;-4.30;99.90;;;;;;4989694;28;20073;-65
2022/12/14 02:09:52;;;;;;;33.55;19.75;;;-4.20;99.90;;;;;;5005030;28;20042;-65
2022/12/14 02:13:08;;;;;;;33.85;19.55;;;-4.20;99.90;;;;;;5021609;28;20069;-65
2022/12/14 02:19:27;;;;;;;36.17;19.08;;;-4.40;99.90;;;;;;4991200;28;20132;-65
2022/12/14 02:22:45;;;;;;;32.92;17.90;;;-4.70;99.90;;;;;;4991283;28;20376;-65
2022/12/14 02:25:57;;;;;;;36.38;19.27;;;-4.80;99.90;;;;;;4991137;28;20050;-65
2022/12/14 02:29:24;;;;;;;32.15;19.15;;;-4.90;99.90;;;;;;4990039;28;20677;-65
2022/12/14 02:32:41;;;;;;;39.28;19.75;;;-5.00;99.90;;;;;;5021571;28;20383;-65
2022/12/14 02:43:38;;;;;;;36.83;19.45;;;-5.30;99.90;;;;;;4990127;28;20033;-65
2022/12/14 02:46:49;;;;;;;31.23;16.98;;;-5.40;99.90;;;;;;5019517;28;20055;-64
2022/12/14 02:50:22;;;;;;;30.25;14.13;;;-5.40;99.90;;;;;;4988260;28;20049;-64
2022/12/14 02:53:31;;;;;;;34.85;19.60;;;-5.50;99.90;;;;;;4983751;28;20069;-64
2022/12/14 02:56:45;;;;;;;31.95;17.42;;;-5.60;99.90;;;;;;4988105;28;20120;-64
2022/12/14 03:03:18;;;;;;;35.03;18.05;;;-5.60;99.90;;;;;;4989162;28;20077;-65
2022/12/14 03:06:29;;;;;;;36.72;17.88;;;-5.60;99.90;;;;;;4988943;28;20498;-64
2022/12/14 03:09:42;;;;;;;33.27;18.50;;;-5.70;99.90;;;;;;4990939;28;20518;-64
2022/12/14 03:13:01;;;;;;;33.60;17.65;;;-5.70;99.90;;;;;;4991216;28;20042;-65
2022/12/14 03:16:06;;;;;;;41.63;21.17;;;-5.80;99.90;;;;;;4992900;28;20085;-64
2022/12/14 03:19:22;;;;;;;35.38;19.20;;;-5.80;99.90;;;;;;4993041;28;20046;-64
2022/12/14 03:22:44;;;;;;;36.97;20.25;;;-5.80;99.90;;;;;;4994210;28;20402;-64
2022/12/14 03:25:52;;;;;;;39.33;19.75;;;-5.80;99.90;;;;;;4992050;28;20034;-64
2022/12/14 03:29:04;;;;;;;40.38;22.67;;;-5.80;99.90;;;;;;4991127;28;20046;-64
2022/12/14 03:32:04;;;;;;;40.53;20.92;;;-5.70;99.90;;;;;;5022831;28;20482;-64
2022/12/14 03:35:14;;;;;;;41.47;20.48;;;-5.70;99.90;;;;;;5023382;28;20061;-64
2022/12/14 03:38:35;;;;;;;40.97;23.08;;;-5.70;99.90;;;;;;5023402;28;20482;-64
2022/12/14 03:41:50;;;;;;;34.90;19.45;;;-5.70;99.90;;;;;;5024013;28;20093;-64
2022/12/14 03:45:02;;;;;;;40.88;20.70;;;-5.80;99.90;;;;;;4992516;28;20046;-64
2022/12/14 03:48:03;;;;;;;34.63;19.60;;;-5.90;99.90;;;;;;5023442;28;20104;-64
2022/12/14 03:51:20;;;;;;;37.55;20.13;;;-5.90;99.90;;;;;;4993193;28;20055;-64
2022/12/14 03:54:38;;;;;;;42.03;20.20;;;-5.90;99.90;;;;;;5019795;28;20093;-64
2022/12/14 04:01:49;;;;;;;37.55;20.20;;;-5.90;99.90;;;;;;4990974;28;20077;-64
2022/12/14 04:05:04;;;;;;;37.53;21.25;;;-5.90;99.90;;;;;;5022004;28;20064;-64
2022/12/14 04:08:44;;;;;;;36.15;20.38;;;-6.00;99.90;;;;;;5023121;28;20049;-64
2022/12/14 04:22:23;;;;;;;38.50;20.45;;;-6.00;99.90;;;;;;4991053;28;20178;-64
2022/12/14 04:32:46;;;;;;;35.08;20.15;;;-5.90;99.90;;;;;;4990703;28;20384;-63
2022/12/14 04:35:55;;;;;;;43.72;22.48;;;-6.00;99.90;;;;;;4990716;28;20053;-63
2022/12/14 04:38:48;;;;;;;;;;;-6.00;99.90;;;;;;4992224;28;20050;-63
2022/12/14 04:41:19;;;;;;;38.45;19.65;;;-6.00;99.90;;;;;;5024058;28;19917;-64
2022/12/14 04:43:47;;;;;;;39.30;20.27;;;-6.00;99.90;;;;;;4991094;28;20061;-64
2022/12/14 04:46:17;;;;;;;37.35;19.30;;;-6.00;99.90;;;;;;5024049;28;20054;-64
2022/12/14 04:48:49;;;;;;;40.50;21.25;;;-6.00;99.90;;;;;;4991319;28;20046;-64
2022/12/14 04:51:34;;;;;;;37.45;20.05;;;-6.00;99.90;;;;;;4992589;28;20069;-64
2022/12/14 04:54:23;;;;;;;39.00;19.52;;;-6.10;99.90;;;;;;4992754;28;20053;-63
2022/12/14 04:56:56;;;;;;;39.97;19.90;;;-6.10;99.90;;;;;;4991945;28;20046;-64
2022/12/14 04:59:23;;;;;;;40.17;20.15;;;-6.10;99.90;;;;;;4998833;28;20479;-63
2022/12/14 05:01:52;;;;;;;37.28;20.40;;;-6.10;99.90;;;;;;4992448;28;20045;-63
2022/12/14 05:04:33;;;;;;;39.65;20.13;;;-6.10;99.90;;;;;;4992477;28;20045;-63
2022/12/14 05:06:58;;;;;;;37.03;19.40;;;-6.20;99.90;;;;;;4990740;28;20042;-64
2022/12/14 05:09:33;;;;;;;38.42;19.05;;;-6.20;99.90;;;;;;5023777;28;20049;-64
2022/12/14 05:12:09;;;;;;;39.22;19.33;;;-6.30;99.90;;;;;;4991895;28;20061;-63
2022/12/14 05:15:13;;;;;;;31.02;16.90;;;-6.40;99.90;;;;;;4992486;28;20049;-63
2022/12/14 05:17:40;;;;;;;35.00;19.55;;;-6.50;99.90;;;;;;4990741;28;20041;-64
2022/12/14 05:20:15;;;;;;;39.75;19.88;;;-6.60;99.90;;;;;;4992204;28;20104;-63
2022/12/14 05:22:43;;;;;;;36.38;20.20;;;-6.70;99.90;;;;;;4992220;28;20544;-63
2022/12/14 05:25:09;;;;;;;37.25;19.45;;;-6.70;99.90;;;;;;5023179;28;20034;-63
2022/12/14 05:27:35;;;;;;;39.10;19.45;;;-6.70;99.90;;;;;;4990432;28;20054;-63
2022/12/14 05:30:01;;;;;;;34.67;18.92;;;-6.80;99.90;;;;;;4991768;28;20050;-63
2022/12/14 05:32:28;;;;;;;39.70;19.75;;;-6.80;99.90;;;;;;4991914;28;20042;-62
2022/12/14 05:34:54;;;;;;;43.15;21.35;;;-6.90;99.90;;;;;;4991751;28;20118;-63
2022/12/14 05:37:20;;;;;;;37.38;20.08;;;-6.90;99.90;;;;;;4991346;28;20058;-63
2022/12/14 05:39:46;;;;;;;37.13;20.95;;;-6.90;99.90;;;;;;4991508;28;20045;-63
2022/12/14 05:42:12;;;;;;;36.33;18.80;;;-6.90;99.90;;;;;;4991606;28;20034;-63
2022/12/14 05:44:37;;;;;;;33.95;18.45;;;-6.90;99.90;;;;;;5023170;28;20042;-63
2022/12/14 05:47:03;;;;;;;41.58;20.98;;;-6.90;99.90;;;;;;4991553;28;20045;-64
2022/12/14 05:49:29;;;;;;;38.92;20.17;;;-6.90;99.90;;;;;;5023091;28;20068;-63
2022/12/14 05:51:55;;;;;;;34.70;20.15;;;-6.90;99.90;;;;;;5023177;28;20053;-63
2022/12/14 05:54:21;;;;;;;37.50;19.85;;;-6.90;99.90;;;;;;4990818;28;20152;-63
2022/12/14 05:56:47;;;;;;;44.47;20.73;;;-6.90;99.90;;;;;;4991091;28;20046;-63
2022/12/14 05:59:14;;;;;;;43.42;22.05;;;-6.90;99.90;;;;;;4991502;28;20474;-63
2022/12/14 06:01:44;;;;;;;46.10;22.98;;;-6.90;99.90;;;;;;4989700;28;20046;-63
2022/12/14 06:04:14;;;;;;;40.83;21.00;;;-6.90;99.90;;;;;;5022438;28;20058;-64
2022/12/14 06:06:40;;;;;;;41.42;21.95;;;-6.80;99.90;;;;;;4990162;28;20602;-63
2022/12/14 06:09:09;;;;;;;40.17;21.80;;;-6.80;99.90;;;;;;4989680;28;20038;-63
2022/12/14 06:11:40;;;;;;;40.35;21.73;;;-6.80;99.90;;;;;;5022484;28;20042;-63
2022/12/14 06:14:07;;;;;;;42.60;21.67;;;-6.80;99.90;;;;;;4990038;28;20057;-63
2022/12/14 06:16:33;;;;;;;41.80;21.92;;;-6.80;99.90;;;;;;4990835;28;20121;-63
2022/12/14 06:19:00;;;;;;;51.33;21.70;;;-6.80;99.90;;;;;;4989612;28;20042;-64
2022/12/14 06:21:32;;;;;;;40.67;22.40;;;-6.80;99.90;;;;;;4991020;28;20065;-64
2022/12/14 06:23:59;;;;;;;44.33;21.40;;;-6.80;99.90;;;;;;4990679;28;20053;-63
2022/12/14 06:26:25;;;;;;;50.53;23.20;;;-6.80;99.90;;;;;;5022212;28;20042;-63
2022/12/14 06:28:55;;;;;;;39.75;21.05;;;-6.90;99.90;;;;;;4989392;28;20049;-63
2022/12/14 06:31:28;;;;;;;38.40;20.15;;;-6.90;99.90;;;;;;4990536;28;20065;-64
2022/12/14 06:33:57;;;;;;;47.88;22.90;;;-6.90;99.90;;;;;;4989756;28;20451;-63
2022/12/14 06:36:25;;;;;;;44.80;22.48;;;-6.90;99.90;;;;;;5022052;28;20129;-63
2022/12/14 06:38:52;;;;;;;41.38;22.73;;;-6.90;99.90;;;;;;4988994;28;20134;-63
2022/12/14 06:41:19;;;;;;;42.88;22.08;;;-6.90;99.90;;;;;;4988781;28;20053;-63
2022/12/14 06:43:45;;;;;;;44.83;23.73;;;-6.90;99.90;;;;;;4988903;28;20081;-63
2022/12/14 06:46:14;;;;;;;39.60;20.58;;;-6.90;99.90;;;;;;5021853;28;20045;-63
2022/12/14 06:48:40;;;;;;;45.72;21.45;;;-6.90;99.90;;;;;;4990795;28;20572;-63
2022/12/14 06:51:06;;;;;;;46.38;22.48;;;-6.90;99.90;;;;;;4990414;28;20042;-63
2022/12/14 06:53:34;;;;;;;43.17;21.77;;;-6.90;99.90;;;;;;4990330;28;20046;-63
2022/12/14 06:56:10;;;;;;;44.60;22.23;;;-7.00;99.90;;;;;;4989122;28;20048;-63
2022/12/14 06:58:36;;;;;;;46.15;21.30;;;-7.00;99.90;;;;;;5021579;28;20421;-63
2022/12/14 07:01:04;;;;;;;43.13;21.20;;;-7.00;99.90;;;;;;5022037;28;20050;-63
2022/12/14 07:03:30;;;;;;;37.83;21.02;;;-7.00;99.90;;;;;;4989445;28;20128;-63
2022/12/14 07:06:00;;;;;;;39.38;20.05;;;-7.00;99.90;;;;;;4989051;28;20054;-63
2022/12/14 07:08:28;;;;;;;37.83;20.23;;;-7.00;99.90;;;;;;4988755;28;20035;-63
2022/12/14 07:10:54;;;;;;;44.03;22.02;;;-7.00;99.90;;;;;;4990384;28;20505;-63
2022/12/14 07:13:20;;;;;;;42.38;20.33;;;-7.00;99.90;;;;;;4972722;28;20133;-63
2022/12/14 07:15:54;;;;;;;42.67;21.15;;;-7.00;99.90;;;;;;4990347;28;20070;-63
2022/12/14 07:18:20;;;;;;;43.92;21.60;;;-7.00;99.90;;;;;;4990311;28;20040;-63
2022/12/14 07:21:04;;;;;;;44.08;21.55;;;-7.00;99.90;;;;;;5021814;28;20058;-63
2022/12/14 07:23:32;;;;;;;42.42;21.50;;;-7.00;99.90;;;;;;4990318;28;20038;-62
2022/12/14 07:26:03;;;;;;;41.20;20.95;;;-7.00;99.90;;;;;;5021390;28;20097;-63
2022/12/14 07:28:29;;;;;;;50.92;22.40;;;-7.00;99.90;;;;;;5021757;28;20557;-63
2022/12/14 07:30:56;;;;;;;46.35;20.65;;;-7.00;99.90;;;;;;4989117;28;20038;-63
2022/12/14 07:33:22;;;;;;;38.22;20.45;;;-7.10;99.90;;;;;;4990407;28;20031;-63
2022/12/14 07:35:49;;;;;;;41.60;20.90;;;-7.00;99.90;;;;;;4995351;28;20620;-63
2022/12/14 07:38:15;;;;;;;37.38;20.00;;;-7.00;99.90;;;;;;5021323;28;20118;-63
2022/12/14 07:40:42;;;;;;;46.17;23.75;;;-7.00;99.90;;;;;;4989025;28;20372;-63
2022/12/14 07:43:08;;;;;;;41.20;21.67;;;-7.00;99.90;;;;;;4990091;28;20046;-63
2022/12/14 07:45:34;;;;;;;38.10;19.70;;;-7.00;99.90;;;;;;5005158;28;20104;-63
2022/12/14 07:47:59;;;;;;;41.17;21.75;;;-7.00;99.90;;;;;;4990250;28;20050;-63
2022/12/14 07:50:25;;;;;;;39.40;19.48;;;-7.00;99.90;;;;;;4989557;28;20049;-63
2022/12/14 07:52:52;;;;;;;37.22;20.40;;;-7.00;99.90;;;;;;4989759;28;20053;-62
2022/12/14 07:55:18;;;;;;;35.88;19.85;;;-7.00;99.90;;;;;;4989726;28;20125;-63
2022/12/14 07:57:44;;;;;;;40.45;20.52;;;-7.00;99.90;;;;;;4993504;28;20137;-63
2022/12/14 08:00:11;;;;;;;45.25;22.27;;;-7.10;99.90;;;;;;4975949;28;20042;-64
2022/12/14 08:02:37;;;;;;;41.72;21.75;;;-7.00;99.90;;;;;;5025172;28;20054;-63
2022/12/14 08:05:03;;;;;;;37.58;20.52;;;-7.10;99.90;;;;;;4993046;28;20511;-63
2022/12/14 08:07:30;;;;;;;37.00;20.25;;;-7.00;99.90;;;;;;4993490;28;20122;-63
2022/12/14 08:09:56;;;;;;;45.90;23.02;;;-7.00;99.90;;;;;;5024706;28;20104;-64
2022/12/14 08:12:22;;;;;;;44.53;21.73;;;-7.00;99.90;;;;;;4992026;28;20054;-63
2022/12/14 08:14:48;;;;;;;38.45;20.42;;;-7.00;99.90;;;;;;5024644;28;20126;-64
2022/12/14 08:17:14;;;;;;;40.92;20.48;;;-6.90;99.90;;;;;;4993232;28;20046;-63
2022/12/14 08:19:40;;;;;;;35.75;19.20;;;-6.80;99.90;;;;;;4991056;28;20406;-63
2022/12/14 08:22:05;;;;;;;40.95;20.48;;;-6.60;99.90;;;;;;4992984;28;20078;-63
2022/12/14 08:24:31;;;;;;;38.85;19.30;;;-6.20;99.90;;;;;;4990139;28;20057;-64
2022/12/14 08:26:57;;;;;;;41.47;21.42;;;-5.80;99.90;;;;;;4991607;28;20117;-63
2022/12/14 08:29:23;;;;;;;41.95;20.63;;;-5.40;99.90;;;;;;4992599;28;20117;-63
2022/12/14 08:31:49;;;;;;;37.92;20.55;;;-5.00;99.90;;;;;;4991573;28;20065;-64
2022/12/14 08:34:21;;;;;;;35.70;18.58;;;-4.40;99.90;;;;;;5023684;28;20043;-64
2022/12/14 08:36:47;;;;;;;30.20;17.15;;;-3.50;99.90;;;;;;4990799;28;20078;-64
2022/12/14 08:39:12;;;;;;;34.97;18.77;;;-2.60;99.90;;;;;;5024401;28;20132;-64
2022/12/14 08:41:38;;;;;;;30.33;15.98;;;-1.80;99.90;;;;;;4992839;28;20038;-64
2022/12/14 08:44:05;;;;;;;35.55;18.95;;;-1.30;99.90;;;;;;4992786;28;20038;-64
2022/12/14 08:46:32;;;;;;;30.85;16.83;;;-0.90;99.90;;;;;;4992811;28;20030;-64
2022/12/14 08:48:59;;;;;;;30.48;17.77;;;-0.30;99.90;;;;;;5023768;28;20038;-64
2022/12/14 08:51:26;;;;;;;25.65;15.65;;;0.20;99.90;;;;;;5023927;28;20046;-64
2022/12/14 08:53:52;;;;;;;32.05;18.52;;;0.50;99.90;;;;;;4991290;28;20046;-64
2022/12/14 08:56:20;;;;;;;31.10;19.00;;;0.90;99.90;;;;;;5007288;28;20113;-64
2022/12/14 08:58:47;;;;;;;26.17;17.13;;;1.30;99.90;;;;;;4991143;28;20129;-63
2022/12/14 09:01:22;;;;;;;28.17;18.08;;;1.70;99.90;;;;;;5007639;28;20046;-63
2022/12/14 09:03:49;;;;;;;27.83;19.15;;;2.00;99.90;;;;;;4990607;28;20526;-63
2022/12/14 09:06:22;;;;;;;32.30;20.25;;;2.20;99.90;;;;;;4992220;28;20426;-63
2022/12/14 09:08:47;;;;;;;29.80;19.45;;;2.20;99.90;;;;;;5007156;28;20549;-63
2022/12/14 09:11:15;;;;;;;26.75;17.25;;;2.30;99.90;;;;;;4992314;28;20042;-64
2022/12/14 09:13:42;;;;;;;31.05;18.92;;;2.70;99.90;;;;;;4991020;28;20045;-63
2022/12/14 09:16:14;;;;;;;29.73;18.77;;;3.30;99.90;;;;;;4990551;28;20042;-64
2022/12/14 09:18:40;;;;;;;31.23;18.45;;;4.00;99.90;;;;;;4991612;28;20042;-64
2022/12/14 09:21:07;;;;;;;31.17;19.42;;;4.70;99.90;;;;;;4992016;28;20541;-64
2022/12/14 09:23:34;;;;;;;31.92;21.02;;;5.30;99.90;;;;;;5023670;28;20510;-64
2022/12/14 09:26:06;;;;;;;27.15;18.65;;;5.60;99.90;;;;;;4990047;28;20511;-64
2022/12/14 09:28:34;;;;;;;30.13;19.25;;;6.00;99.90;;;;;;5022971;28;20390;-65
2022/12/14 09:31:06;;;;;;;31.15;20.50;;;6.50;99.90;;;;;;4990444;28;20050;-65
2022/12/14 09:33:32;;;;;;;33.05;20.42;;;6.90;99.90;;;;;;4990159;28;20502;-64
2022/12/14 09:36:12;;;;;;;31.95;19.67;;;7.20;99.90;;;;;;4991639;28;20077;-65
2022/12/14 09:38:39;;;;;;;34.13;20.98;;;7.50;99.90;;;;;;5023137;28;20491;-65
2022/12/14 09:41:18;;;;;;;31.85;20.48;;;7.80;99.90;;;;;;4991987;28;20054;-65
2022/12/14 09:44:14;;;;;;;29.55;20.52;;;8.10;99.90;;;;;;4990380;28;20056;-65
2022/12/14 09:46:49;;;;;;;26.17;18.73;;;8.40;99.90;;;;;;5000809;28;20137;-65
2022/12/14 09:49:33;;;;;;;27.75;19.92;;;8.60;99.90;;;;;;5022730;28;20050;-65
2022/12/14 09:52:01;;;;;;;35.28;20.33;;;8.90;99.90;;;;;;5022597;28;20510;-65
2022/12/14 09:54:35;;;;;;;25.50;18.23;;;9.20;99.90;;;;;;4989892;28;20122;-65
2022/12/14 09:57:19;;;;;;;27.75;17.77;;;9.40;99.90;;;;;;4990961;28;20542;-65
2022/12/14 09:59:45;;;;;;;26.55;18.23;;;9.50;99.90;;;;;;4991153;28;20049;-65
2022/12/14 10:02:30;;;;;;;26.20;18.38;;;9.60;99.90;;;;;;4989299;28;20050;-65
2022/12/14 10:05:31;;;;;;;28.75;19.95;;;9.60;99.90;;;;;;4991309;28;20054;-65
2022/12/14 10:08:18;;;;;;;26.58;18.40;;;9.70;99.90;;;;;;5006098;28;20125;-65
2022/12/14 10:10:47;;;;;;;27.25;18.83;;;9.90;99.20;;;;;;4989566;28;20054;-66
2022/12/14 10:13:34;;;;;;;25.40;17.85;;;10.10;98.70;;;;;;4990825;28;20038;-66
2022/12/14 10:16:18;;;;;;;29.33;20.85;;;10.30;97.40;;;;;;4990358;28;20049;-65
2022/12/14 10:19:04;;;;;;;25.00;17.73;;;10.10;95.30;;;;;;5021756;28;20081;-65
2022/12/14 10:21:53;;;;;;;23.70;17.80;;;9.90;97.10;;;;;;4989466;28;20125;-66
2022/12/14 10:24:43;;;;;;;26.60;18.60;;;10.00;96.50;;;;;;5005862;28;20042;-66
2022/12/14 10:27:19;;;;;;;25.38;18.00;;;10.30;94.30;;;;;;5022120;28;20050;-66
2022/12/14 10:29:59;;;;;;;24.92;18.30;;;10.60;94.70;;;;;;5021838;28;20058;-66
2022/12/14 10:32:35;;;;;;;27.38;19.08;;;10.80;94.10;;;;;;4992008;28;20442;-66
2022/12/14 10:35:16;;;;;;;27.10;17.98;;;10.80;92.60;;;;;;4989675;28;20054;-66
2022/12/14 10:38:06;;;;;;;26.10;17.38;;;10.80;92.10;;;;;;4991787;28;20046;-67
2022/12/14 10:40:34;;;;;;;26.38;19.27;;;11.00;92.20;;;;;;5021257;28;20050;-67
2022/12/14 10:43:29;;;;;;;24.80;18.33;;;11.30;91.80;;;;;;4990368;28;20078;-67
2022/12/14 10:46:13;;;;;;;24.17;18.17;;;11.40;88.60;;;;;;4990318;28;20478;-68
2022/12/14 10:48:51;;;;;;;25.65;17.60;;;11.40;90.00;;;;;;4989322;28;20050;-68
2022/12/14 10:51:40;;;;;;;23.02;18.05;;;11.60;86.90;;;;;;4990649;28;20129;-68
2022/12/14 10:54:24;;;;;;;26.88;20.23;;;11.60;88.70;;;;;;4990459;28;20054;-66
2022/12/14 10:56:50;;;;;;;25.33;20.10;;;11.50;86.10;;;;;;4988959;28;20089;-66
2022/12/14 10:59:20;;;;;;;26.70;20.05;;;11.60;88.10;;;;;;4988917;28;20078;-66
2022/12/14 11:01:50;;;;;;;27.10;19.67;;;11.80;86.70;;;;;;4990414;28;20042;-66
2022/12/14 11:04:38;;;;;;;24.63;18.25;;;12.10;86.30;;;;;;4990581;28;20601;-66
2022/12/14 11:07:10;;;;;;;24.58;18.02;;;12.30;82.30;;;;;;4989203;28;20038;-67
2022/12/14 11:09:37;;;;;;;21.60;16.73;;;12.10;84.30;;;;;;4988983;28;20473;-67
2022/12/14 11:12:12;;;;;;;22.80;16.63;;;11.90;84.20;;;;;;4990556;28;20084;-69
2022/12/14 11:14:58;;;;;;;22.02;15.88;;;11.50;83.40;;;;;;5021163;28;20053;-66
2022/12/14 11:17:40;;;;;;;22.45;15.70;;;11.20;82.60;;;;;;4989959;28;20051;-66
2022/12/14 11:20:14;;;;;;;20.90;15.00;;;11.20;82.60;;;;;;5021896;28;20117;-66
2022/12/14 11:23:07;;;;;;;24.20;18.88;;;11.20;82.70;;;;;;5021626;28;20134;-66
2022/12/14 11:25:41;;;;;;;23.90;18.38;;;11.00;84.30;;;;;;4988837;28;20501;-66
2022/12/14 11:28:25;;;;;;;24.73;18.60;;;10.20;85.30;;;;;;5021470;28;20152;-65
2022/12/14 11:31:02;;;;;;;26.90;20.63;;;9.00;85.80;;;;;;4992640;28;20038;-65
2022/12/14 11:33:36;;;;;;;26.05;18.90;;;8.00;88.00;;;;;;5025340;28;20057;-66
2022/12/14 11:36:02;;;;;;;26.60;18.75;;;6.80;90.30;;;;;;4993277;28;20687;-65
2022/12/14 11:38:28;;;;;;;28.92;18.92;;;6.10;91.80;;;;;;4992417;28;20046;-65
2022/12/14 11:40:55;;;;;;;29.75;20.40;;;5.50;93.10;;;;;;4992738;28;20130;-64
2022/12/14 11:43:33;;;;;;;25.67;17.95;;;5.00;94.30;;;;;;4992072;28;20494;-64
2022/12/14 11:46:00;;;;;;;25.08;18.15;;;4.40;95.60;;;;;;5008608;28;20092;-65
2022/12/14 11:48:27;;;;;;;26.38;16.70;;;3.90;97.10;;;;;;4993637;28;20049;-64
2022/12/14 11:51:07;;;;;;;28.58;19.00;;;3.60;98.50;;;;;;4993566;28;20562;-65
2022/12/14 11:53:33;;;;;;;25.40;17.95;;;3.20;99.70;;;;;;4992593;28;20100;-65
2022/12/14 11:56:03;;;;;;;25.80;15.98;;;3.10;99.90;;;;;;4992206;28;20045;-64
2022/12/14 11:58:45;;;;;;;30.85;18.42;;;3.00;99.90;;;;;;5000095;28;20053;-64
2022/12/14 12:01:14;;;;;;;30.65;18.38;;;3.00;99.90;;;;;;4993392;28;20045;-64
2022/12/14 12:03:50;;;;;;;31.63;18.17;;;2.90;99.90;;;;;;4993062;28;20047;-65
2022/12/14 12:06:23;;;;;;;28.10;18.50;;;3.00;99.90;;;;;;4993176;28;20804;-64
2022/12/14 12:08:57;;;;;;;26.88;17.27;;;3.20;99.90;;;;;;4993452;28;20052;-64
2022/12/14 12:11:27;;;;;;;26.63;16.92;;;3.10;99.90;;;;;;4992819;28;20049;-64
2022/12/14 12:14:00;;;;;;;28.75;17.67;;;2.90;99.90;;;;;;4991855;28;20395;-64
2022/12/14 12:16:27;;;;;;;28.17;17.35;;;2.50;99.90;;;;;;4991965;28;20406;-64
2022/12/14 12:19:07;;;;;;;30.25;18.15;;;2.10;99.90;;;;;;4991001;28;20046;-64
2022/12/14 12:21:43;;;;;;;28.50;17.73;;;1.70;99.90;;;;;;4991691;28;20099;-64
2022/12/14 12:24:33;;;;;;;29.17;16.70;;;1.40;99.90;;;;;;5001022;28;20054;-64
2022/12/14 12:27:10;;;;;;;25.10;14.82;;;1.10;99.90;;;;;;4967402;28;20063;-64
2022/12/14 12:30:03;;;;;;;28.58;16.30;;;0.80;99.90;;;;;;4968956;28;20679;-64
2022/12/14 12:32:41;;;;;;;27.75;16.98;;;0.70;99.90;;;;;;4938669;28;20050;-64
2022/12/14 12:35:41;;;;;;;29.15;15.05;;;0.50;99.90;;;;;;4954979;28;20519;-64
2022/12/14 12:38:34;;;;;;;30.60;16.88;;;0.40;99.90;;;;;;4964774;28;20043;-64
2022/12/14 12:41:24;;;;;;;27.67;15.52;;;0.50;99.90;;;;;;4953822;28;20105;-65
2022/12/14 12:43:57;;;;;;;28.92;16.30;;;0.50;99.90;;;;;;4938351;28;20111;-64
2022/12/14 12:46:37;;;;;;;28.33;17.10;;;0.60;99.90;;;;;;4954086;28;20042;-64
2022/12/14 12:49:11;;;;;;;19.83;11.77;;;0.50;99.90;;;;;;4954316;28;20564;-64
2022/12/14 12:51:48;;;;;;;26.65;14.07;;;0.30;99.90;;;;;;4970489;28;20047;-64
2022/12/14 12:54:31;;;;;;;26.15;15.52;;;0.30;99.90;;;;;;4954322;28;20038;-65
2022/12/14 12:56:59;;;;;;;27.20;15.27;;;0.30;99.90;;;;;;4954009;28;20055;-65
2022/12/14 12:59:35;;;;;;;19.50;11.60;;;0.40;99.90;;;;;;4970248;28;20039;-65
2022/12/14 13:02:25;;;;;;;19.85;12.23;;;0.50;99.90;;;;;;4954204;28;20054;-65
2022/12/14 13:04:52;;;;;;;25.00;14.57;;;0.50;99.90;;;;;;4984905;28;20569;-65
2022/12/14 13:07:28;;;;;;;23.33;13.57;;;0.60;99.90;;;;;;5006923;28;20101;-65
2022/12/14 13:10:02;;;;;;;22.27;13.15;;;0.50;99.90;;;;;;4991319;28;20498;-65
2022/12/14 13:12:38;;;;;;;20.90;12.25;;;0.40;99.90;;;;;;4990470;28;20046;-65
2022/12/14 13:15:27;;;;;;;21.70;12.75;;;0.30;99.90;;;;;;4990746;28;20042;-65
2022/12/14 13:18:00;;;;;;;19.45;12.90;;;0.20;99.90;;;;;;4999826;28;20398;-65
2022/12/14 13:20:30;;;;;;;18.20;12.05;;;0.30;99.90;;;;;;4990780;28;20041;-65
2022/12/14 13:22:56;;;;;;;17.75;11.20;;;0.40;99.90;;;;;;4992051;28;20038;-65
2022/12/14 13:25:33;;;;;;;23.77;13.82;;;0.50;99.90;;;;;;4989639;28;20078;-65
2022/12/14 13:28:22;;;;;;;19.70;12.73;;;0.50;99.90;;;;;;5023269;28;20108;-65
2022/12/14 13:30:58;;;;;;;18.52;11.35;;;0.40;99.90;;;;;;4991910;28;20750;-65
2022/12/14 13:33:53;;;;;;;21.75;12.73;;;0.30;99.90;;;;;;4989071;28;20042;-65
2022/12/14 13:36:34;;;;;;;18.23;10.90;;;0.40;99.90;;;;;;5020703;28;20058;-65
2022/12/14 13:39:16;;;;;;;22.33;13.38;;;0.40;99.90;;;;;;4991244;28;20050;-65
2022/12/14 13:41:51;;;;;;;32.80;19.35;;;0.40;99.90;;;;;;4991769;28;20034;-65
2022/12/14 13:44:50;;;;;;;39.90;24.33;;;0.30;99.90;;;;;;4991542;28;20468;-65
2022/12/14 13:47:20;;;;;;;33.92;20.05;;;0.20;99.90;;;;;;5023146;28;20050;-65
2022/12/14 13:49:59;;;;;;;39.65;21.58;;;0.00;99.90;;;;;;4990257;28;20053;-65
2022/12/14 13:52:46;;;;;;;30.67;18.60;;;0.00;99.90;;;;;;4991188;28;20049;-64
2022/12/14 13:55:31;;;;;;;28.80;17.13;;;-0.10;99.90;;;;;;4987258;28;20050;-65
2022/12/14 13:58:38;;;;;;;21.90;12.55;;;-0.20;99.90;;;;;;4991139;28;20046;-65